Time;durP1;ratioP1;P1;durP2;ratioP2;P2;SDS_P1;SDS_P2;PMS_P1;PMS_P2;Temp;Humidity;BMP_temperature;BMP_pressure;BME280_temperature;BME280_humidity;BME280_pressure;Samples;Min_cycle;Max_cycle;Signal;HPM_P1;HPM_P2
2024/02/02 01:11:36;;;;;;;;;;;;;;;8.76;76.87;100444.02;107004;1257;59247;-78
2024/02/02 01:14:17;;;;;;;;;;;;;;;8.75;76.77;100452.20;106791;1253;74269;-78
2024/02/02 01:16:56;;;;;;;;;;;;;;;8.68;77.05;100452.27;106668;1257;67206;-78
2024/02/02 01:19:25;;;;;;;;;;;;;;;8.82;76.19;100445.73;107026;1253;72651;-78
2024/02/02 01:21:55;;;;;;;;;;;;;;;9.00;74.31;100446.98;106710;1256;60435;-78
2024/02/02 01:24:28;;;;;;;;;;;;;;;9.02;73.82;100446.11;106688;1253;60348;-78
2024/02/02 01:27:02;;;;;;;;;;;;;;;8.87;74.41;100442.54;106626;1258;74397;-78
2024/02/02 01:29:33;;;;;;;;;;;;;;;8.76;75.41;100442.39;106599;1253;68839;-78
2024/02/02 01:32:07;;;;;;;;;;;;;;;8.84;74.77;100439.52;106923;1257;72710;-78
2024/02/02 01:34:42;;;;;;;;;;;;;;;8.78;75.07;100437.82;106774;1253;59768;-78
2024/02/02 01:37:16;;;;;;;;;;;;;;;8.79;74.74;100440.88;106757;1253;60617;-78
2024/02/02 01:39:45;;;;;;;;;;;;;;;8.70;75.32;100447.21;106781;1257;73855;-78
2024/02/02 01:42:20;;;;;;;;;;;;;;;8.87;74.02;100442.20;107281;1255;69869;-79
2024/02/02 01:44:55;;;;;;;;;;;;;;;8.93;73.21;100437.53;106766;1256;72681;-78
2024/02/02 01:47:29;;;;;;;;;;;;;;;8.97;72.44;100438.69;106621;1253;60499;-78
2024/02/02 01:49:59;;;;;;;;;;;;;;;9.01;71.24;100437.45;106630;1254;60365;-78
2024/02/02 01:52:34;;;;;;;;;;;;;;;8.99;71.27;100439.30;106791;1253;73863;-79
2024/02/02 01:55:09;;;;;;;;;;;;;;;8.99;70.49;100440.50;106770;1253;68387;-78
2024/02/02 01:57:45;;;;;;;;;;;;;;;8.84;71.20;100443.88;106627;1253;72697;-78
2024/02/02 02:00:14;;;;;;;;;;;;;;;8.77;71.11;100439.56;106634;1258;60432;-78
2024/02/02 02:02:50;;;;;;;;;;;;;;;8.75;71.25;100441.30;107138;1253;60476;-78
2024/02/02 02:05:25;;;;;;;;;;;;;;;8.93;69.93;100445.11;106752;1251;72558;-78
2024/02/02 02:07:52;;;;;;;;;;;;;;;8.97;69.02;100444.46;106761;1258;68386;-78
2024/02/02 02:10:29;;;;;;;;;;;;;;;8.62;70.41;100442.83;106699;1253;72738;-78
2024/02/02 02:13:04;;;;;;;;;;;;;;;8.47;71.29;100437.92;107123;1259;60467;-78
2024/02/02 02:15:38;;;;;;;;;;;;;;;8.48;71.53;100445.15;107138;1253;60545;-78
2024/02/02 02:18:07;;;;;;;;;;;;;;;8.54;70.70;100440.84;106790;1253;74302;-78
2024/02/02 02:20:42;;;;;;;;;;;;;;;8.57;70.10;100443.08;106653;1253;69247;-78
2024/02/02 02:23:18;;;;;;;;;;;;;;;8.55;70.14;100444.01;106932;1253;71064;-78
2024/02/02 02:25:51;;;;;;;;;;;;;;;8.70;68.96;100446.73;107214;1257;60892;-78
2024/02/02 02:28:21;;;;;;;;;;;;;;;8.72;68.70;100448.20;106704;1258;60393;-78
2024/02/02 02:30:56;;;;;;;;;;;;;;;8.82;67.80;100452.21;106729;1254;73809;-79
2024/02/02 02:33:32;;;;;;;;;;;;;;;8.89;66.93;100457.58;106649;1258;67144;-78
2024/02/02 02:35:59;;;;;;;;;;;;;;;8.99;66.02;100454.78;106891;1253;71400;-78
2024/02/02 02:38:35;;;;;;;;;;;;;;;8.80;66.56;100458.59;106649;1257;60479;-79
2024/02/02 02:41:10;;;;;;;;;;;;;;;8.83;66.38;100462.58;106757;1258;60445;-78
2024/02/02 02:43:44;;;;;;;;;;;;;;;8.86;66.02;100462.09;106799;1253;72603;-79
2024/02/02 02:46:12;;;;;;;;;;;;;;;8.95;65.55;100458.30;106577;1259;67219;-78
2024/02/02 02:48:45;;;;;;;;;;;;;;;9.04;64.99;100463.56;106777;1254;71474;-78
2024/02/02 02:51:19;;;;;;;;;;;;;;;8.93;64.91;100462.11;106754;1253;60892;-78
2024/02/02 02:53:53;;;;;;;;;;;;;;;8.60;66.90;100463.52;106739;1253;60442;-78
2024/02/02 02:56:21;;;;;;;;;;;;;;;8.44;67.67;100467.52;106764;1257;74294;-78
2024/02/02 02:58:54;;;;;;;;;;;;;;;8.03;70.54;100472.38;107019;1253;66154;-78
2024/02/02 03:01:28;;;;;;;;;;;;;;;7.69;73.20;100477.35;106733;1257;72630;-78
2024/02/02 03:03:55;;;;;;;;;;;;;;;7.80;74.06;100481.07;106713;1256;60544;-78
2024/02/02 03:06:28;;;;;;;;;;;;;;;7.67;75.05;100478.36;106838;1255;60400;-79
2024/02/02 03:09:03;;;;;;;;;;;;;;;8.07;72.92;100473.16;106649;1253;73837;-79
2024/02/02 03:11:37;;;;;;;;;;;;;;;8.02;72.73;100479.66;107485;1253;67692;-79
2024/02/02 03:14:05;;;;;;;;;;;;;;;7.56;76.08;100484.64;106717;1254;72666;-78
2024/02/02 03:16:39;;;;;;;;;;;;;;;7.69;75.46;100479.08;106671;1253;60397;-78
2024/02/02 03:19:12;;;;;;;;;;;;;;;7.81;74.66;100481.52;106746;1253;60545;-78
2024/02/02 03:21:46;;;;;;;;;;;;;;;7.99;72.96;100483.56;107258;1253;72602;-78
2024/02/02 03:24:14;;;;;;;;;;;;;;;7.80;74.16;100488.15;106741;1253;67564;-78
2024/02/02 03:26:48;;;;;;;;;;;;;;;7.62;75.54;100489.97;106650;1253;72671;-78
2024/02/02 03:29:21;;;;;;;;;;;;;;;7.68;75.62;100488.33;106745;1253;60895;-78
2024/02/02 03:31:55;;;;;;;;;;;;;;;7.61;76.36;100491.52;107135;1253;60485;-78
2024/02/02 03:34:29;;;;;;;;;;;;;;;7.63;76.61;100491.23;106855;1256;72604;-78
2024/02/02 03:37:03;;;;;;;;;;;;;;;7.61;76.43;100491.05;106647;1252;67248;-78
2024/02/02 03:39:36;;;;;;;;;;;;;;;7.75;75.78;100497.35;106774;1253;71676;-78
2024/02/02 03:42:10;;;;;;;;;;;;;;;7.91;74.81;100499.45;107026;1256;60561;-78
2024/02/02 03:44:44;;;;;;;;;;;;;;;8.12;73.06;100496.83;106991;1253;60338;-79
2024/02/02 03:47:18;;;;;;;;;;;;;;;8.32;71.18;100490.73;106675;1258;71841;-79
2024/02/02 03:49:51;;;;;;;;;;;;;;;8.39;70.25;100490.09;106783;1253;68452;-79
2024/02/02 03:52:25;;;;;;;;;;;;;;;8.19;70.68;100491.69;107026;1253;72798;-79
2024/02/02 03:54:59;;;;;;;;;;;;;;;7.88;72.90;100498.11;106907;1253;59378;-79
2024/02/02 03:57:33;;;;;;;;;;;;;;;7.72;74.62;100495.32;106568;1253;60448;-79
2024/02/02 04:00:09;;;;;;;;;;;;;;;7.48;76.49;100497.00;106762;1253;73016;-79
2024/02/02 04:02:47;;;;;;;;;;;;;;;7.40;79.03;100500.80;106720;1253;68474;-79
2024/02/02 04:05:21;;;;;;;;;;;;;;;7.45;78.79;100507.09;106840;1254;71407;-79
2024/02/02 04:07:54;;;;;;;;;;;;;;;7.50;78.70;100509.15;106831;1253;60873;-79
2024/02/02 04:10:28;;;;;;;;;;;;;;;7.54;78.28;100505.55;106971;1253;60404;-79
2024/02/02 04:13:02;;;;;;;;;;;;;;;7.34;79.66;100505.69;106782;1253;73862;-79
2024/02/02 04:15:36;;;;;;;;;;;;;;;7.41;79.42;100504.77;106662;1253;68423;-79
2024/02/02 04:18:10;;;;;;;;;;;;;;;7.75;77.13;100501.88;107291;1253;72829;-79
2024/02/02 04:20:44;;;;;;;;;;;;;;;7.72;76.85;100503.43;106615;1253;60398;-79
2024/02/02 04:23:18;;;;;;;;;;;;;;;7.80;76.06;100503.11;106850;1252;60094;-79
2024/02/02 04:25:51;;;;;;;;;;;;;;;7.86;75.17;100506.77;106879;1258;74315;-78
2024/02/02 04:28:25;;;;;;;;;;;;;;;7.67;76.06;100507.52;106597;1253;66389;-79
2024/02/02 04:30:59;;;;;;;;;;;;;;;7.62;76.57;100515.77;106986;1253;72732;-79
2024/02/02 04:33:32;;;;;;;;;;;;;;;7.55;77.11;100520.56;107065;1253;60474;-79
2024/02/02 04:36:06;;;;;;;;;;;;;;;7.58;77.07;100524.08;106780;1253;60570;-79
2024/02/02 04:38:41;;;;;;;;;;;;;;;7.40;78.08;100520.70;106952;1253;73948;-79
2024/02/02 04:41:15;;;;;;;;;;;;;;;7.50;77.78;100525.75;106687;1253;68592;-78
2024/02/02 04:43:49;;;;;;;;;;;;;;;7.56;76.95;100526.83;106986;1253;71447;-79
2024/02/02 04:46:23;;;;;;;;;;;;;;;7.60;75.97;100532.64;106786;1254;60565;-78
2024/02/02 04:48:56;;;;;;;;;;;;;;;7.55;76.00;100537.77;106864;1255;60368;-78
2024/02/02 04:51:30;;;;;;;;;;;;;;;7.58;76.15;100543.55;106586;1253;73885;-78
2024/02/02 04:54:04;;;;;;;;;;;;;;;7.59;75.98;100544.80;106997;1253;68591;-79
2024/02/02 04:56:38;;;;;;;;;;;;;;;7.73;74.94;100549.14;106698;1258;71013;-79
2024/02/02 04:59:11;;;;;;;;;;;;;;;7.70;74.85;100546.00;106776;1253;60415;-78
2024/02/02 05:01:45;;;;;;;;;;;;;;;7.69;74.50;100551.64;106710;1253;58985;-78
2024/02/02 05:04:19;;;;;;;;;;;;;;;7.65;74.68;100549.21;107251;1253;74274;-79
2024/02/02 05:06:52;;;;;;;;;;;;;;;7.64;74.44;100552.48;106581;1258;67926;-79
2024/02/02 05:09:26;;;;;;;;;;;;;;;7.53;74.72;100553.84;106690;1258;71608;-79
2024/02/02 05:12:00;;;;;;;;;;;;;;;7.58;74.78;100555.45;106815;1252;60489;-79
2024/02/02 05:14:34;;;;;;;;;;;;;;;7.64;73.69;100556.11;106921;1257;60440;-79
2024/02/02 05:17:08;;;;;;;;;;;;;;;7.48;74.61;100559.66;106624;1253;73862;-79
2024/02/02 05:19:42;;;;;;;;;;;;;;;7.42;74.82;100567.04;106886;1253;68506;-79
2024/02/02 05:22:16;;;;;;;;;;;;;;;7.52;74.57;100575.47;106719;1256;72686;-79
2024/02/02 05:24:49;;;;;;;;;;;;;;;7.62;74.10;100582.77;107095;1252;60448;-78
2024/02/02 05:27:23;;;;;;;;;;;;;;;7.71;73.64;100579.48;106730;1253;63596;-79
2024/02/02 05:29:57;;;;;;;;;;;;;;;7.75;73.46;100585.27;106910;1255;72904;-79
2024/02/02 05:32:31;;;;;;;;;;;;;;;7.88;72.80;100585.30;106727;1253;66715;-78
2024/02/02 05:35:04;;;;;;;;;;;;;;;7.71;73.95;100589.09;106754;1259;70818;-79
2024/02/02 05:37:38;;;;;;;;;;;;;;;7.61;74.95;100592.53;106825;1253;60852;-78
2024/02/02 05:40:12;;;;;;;;;;;;;;;7.71;75.06;100595.63;106682;1258;60390;-79
2024/02/02 05:42:46;;;;;;;;;;;;;;;7.88;73.80;100601.29;106749;1253;72675;-78
2024/02/02 05:45:19;;;;;;;;;;;;;;;7.89;73.82;100601.68;106704;1253;68842;-77
2024/02/02 05:47:53;;;;;;;;;;;;;;;8.01;73.28;100598.52;106610;1253;72665;-78
2024/02/02 05:50:27;;;;;;;;;;;;;;;7.90;73.88;100603.05;106622;1253;60597;-77
2024/02/02 05:53:01;;;;;;;;;;;;;;;7.86;74.42;100603.66;106185;1257;59704;-77
2024/02/02 05:55:34;;;;;;;;;;;;;;;8.01;73.37;100610.01;105953;1258;74362;-77
2024/02/02 05:58:08;;;;;;;;;;;;;;;8.02;73.10;100606.48;106331;1259;67574;-78
2024/02/02 06:00:42;;;;;;;;;;;;;;;8.07;72.85;100614.97;106256;1258;72621;-77
2024/02/02 06:03:15;;;;;;;;;;;;;;;8.17;72.14;100611.67;106108;1253;60536;-77
2024/02/02 06:05:49;;;;;;;;;;;;;;;8.16;71.78;100601.33;106475;1257;60709;-78
2024/02/02 06:08:23;;;;;;;;;;;;;;;8.28;70.86;100603.11;105948;1258;73964;-78
2024/02/02 06:10:51;;;;;;;;;;;;;;;8.27;70.39;100598.91;106301;1253;67399;-77
2024/02/02 06:13:24;;;;;;;;;;;;;;;8.34;69.94;100599.34;106117;1259;71419;-78
2024/02/02 06:15:58;;;;;;;;;;;;;;;8.44;69.11;100603.48;106483;1254;60496;-78
2024/02/02 06:18:32;;;;;;;;;;;;;;;8.65;67.56;100612.40;106047;1257;60486;-79
2024/02/02 06:21:06;;;;;;;;;;;;;;;8.82;66.31;100609.98;106441;1256;73883;-78
2024/02/02 06:23:40;;;;;;;;;;;;;;;8.98;65.41;100610.89;106114;1258;68869;-78
2024/02/02 06:26:14;;;;;;;;;;;;;;;9.03;64.55;100607.27;106280;1253;72703;-79
2024/02/02 06:28:47;;;;;;;;;;;;;;;9.14;63.85;100612.27;106221;1257;60517;-79
2024/02/02 06:31:25;;;;;;;;;;;;;;;9.24;63.13;100616.58;106528;1253;60785;-79
2024/02/02 06:33:59;;;;;;;;;;;;;;;9.32;62.30;100621.90;106491;1254;72665;-79
2024/02/02 06:36:33;;;;;;;;;;;;;;;9.33;61.94;100623.86;106737;1257;67686;-79
2024/02/02 06:39:07;;;;;;;;;;;;;;;9.36;61.76;100624.36;106642;1254;72731;-78
2024/02/02 06:41:41;;;;;;;;;;;;;;;9.47;61.06;100629.21;106790;1253;60425;-78
2024/02/02 06:44:14;;;;;;;;;;;;;;;9.42;60.65;100635.19;107106;1255;61279;-78
2024/02/02 06:46:48;;;;;;;;;;;;;;;9.48;60.23;100638.27;106702;1253;72653;-78
2024/02/02 06:49:22;;;;;;;;;;;;;;;9.49;59.92;100640.94;106983;1257;66763;-78
2024/02/02 06:51:55;;;;;;;;;;;;;;;9.64;59.04;100640.77;106749;1254;72861;-78
2024/02/02 06:54:29;;;;;;;;;;;;;;;9.60;58.84;100644.20;106765;1252;60559;-78
2024/02/02 06:57:03;;;;;;;;;;;;;;;9.86;58.08;100647.76;106718;1258;62108;-78
2024/02/02 06:59:37;;;;;;;;;;;;;;;10.06;56.92;100651.51;106941;1263;73769;-78
2024/02/02 07:02:15;;;;;;;;;;;;;;;9.96;56.95;100656.52;106814;1254;68877;-78
2024/02/02 07:04:49;;;;;;;;;;;;;;;10.05;56.44;100655.70;106773;1258;71478;-78
2024/02/02 07:07:22;;;;;;;;;;;;;;;10.14;55.47;100652.55;106754;1253;59202;-78
2024/02/02 07:09:56;;;;;;;;;;;;;;;10.25;54.87;100653.50;106847;1254;60523;-78
2024/02/02 07:12:42;;;;;;;;;;;;;;;10.25;54.29;100655.69;106667;1256;74805;-78
2024/02/02 07:15:19;;;;;;;;;;;;;;;10.45;53.81;100653.64;106462;1255;68562;-78
2024/02/02 07:17:53;;;;;;;;;;;;;;;10.59;53.64;100655.27;106239;1257;72657;-78
2024/02/02 07:20:33;;;;;;;;;;;;;;;10.63;53.05;100652.09;106541;1257;60630;-78
2024/02/02 07:23:06;;;;;;;;;;;;;;;10.66;52.45;100644.71;106221;1267;60417;-78
2024/02/02 07:25:42;;;;;;;;;;;;;;;10.71;51.88;100649.09;106739;1259;73828;-78
2024/02/02 07:28:31;;;;;;;;;;;;;;;10.79;51.66;100651.43;106138;1257;67132;-78
2024/02/02 07:31:07;;;;;;;;;;;;;;;10.82;51.28;100651.15;106066;1257;74677;-78
2024/02/02 07:33:41;;;;;;;;;;;;;;;10.81;51.24;100654.87;106146;1257;62850;-78
2024/02/02 07:36:36;;;;;;;;;;;;;;;10.87;51.00;100657.48;106894;1256;62124;-78
2024/02/02 07:39:12;;;;;;;;;;;;;;;11.05;50.64;100659.73;106112;1258;74314;-78
2024/02/02 07:41:46;;;;;;;;;;;;;;;11.13;50.20;100661.30;106188;1260;71586;-79
2024/02/02 07:44:19;;;;;;;;;;;;;;;11.24;49.59;100662.80;106075;1258;73052;-78
2024/02/02 07:46:53;;;;;;;;;;;;;;;11.29;48.65;100665.03;106251;1255;60607;-78
2024/02/02 07:49:27;;;;;;;;;;;;;;;11.34;48.83;100669.02;106303;1254;60911;-78
2024/02/02 07:52:01;;;;;;;;;;;;;;;11.36;47.60;100671.95;106154;1255;75533;-78
2024/02/02 07:54:35;;;;;;;;;;;;;;;11.53;47.08;100674.57;106484;1258;68974;-78
2024/02/02 07:57:08;;;;;;;;;;;;;;;11.60;46.75;100670.98;106114;1254;72993;-78
2024/02/02 07:59:42;;;;;;;;;;;;;;;11.62;46.68;100675.35;106227;1259;61617;-79
2024/02/02 08:02:17;;;;;;;;;;;;;;;11.39;46.65;100680.16;106093;1257;61942;-78
2024/02/02 08:04:51;;;;;;;;;;;;;;;11.27;46.25;100678.59;106968;1253;75064;-79
2024/02/02 08:07:24;;;;;;;;;;;;;;;11.20;45.61;100681.04;106766;1254;69959;-79
2024/02/02 08:09:52;;;;;;;;;;;;;;;11.26;44.93;100682.16;106812;1254;73780;-79
